Weather History for KOJA - March, 2013

Change the Weather History Date:

Wednesday, March 27, 2013

  Actual Average (KJWG) Record (KJWG)
Temperature  
Mean Temperature 55 °F -  
Max Temperature 69 °F 67 °F 90 °F (1971)
Min Temperature 41 °F 41 °F 26 °F (2009)
Degree Days  
Heating Degree Days 10    
Growing Degree Days 5 (Base 50)    
Moisture  
Dew Point 33 °F    
Average Humidity 48    
Maximum Humidity 67    
Minimum Humidity 31    
Precipitation  
Precipitation 0.00 in - - ()
Sea Level Pressure  
Sea Level Pressure 30.08 in    
Wind  
Wind Speed 15 mph (South)    
Max Wind Speed 25 mph    
Max Gust Speed 32 mph    
Visibility 10 miles    
Events      
Averages and records for this station are not official NWS values.
T = Trace of Precipitation, MM = Missing Value Source: NWS Daily Summary

Daily Weather History Graph

Daily Weather History Graph

Search for Another Location

Airport or City:

Trip Planner

Search our weather history database for the weather conditions in past years. The results will help you decide how hot, cold, wet, or windy it might be!

Date:

Astronomy

Mar. 27, 2013 Rise Set
Actual Time 7:27 AM CDT 7:52 PM CDT
Civil Twilight 7:02 AM CDT 8:18 PM CDT
Nautical Twilight 6:32 AM CDT 8:48 PM CDT
Astronomical Twilight 6:01 AM CDT 9:18 PM CDT
Moon 8:34 PM CDT (3/27) 7:21 AM CDT (3/27)
Length of Visible Light 13h 15m
Length of Day
12h 24m
Full, 100% of the Moon is Illuminated
Mar 27
Full
Apr 2
Last Quarter
Apr 10
New
Apr 18
First Quarter
Apr 25
Full

Hourly Weather History & Observations

Time (CDT) Temp. Windchill Dew Point Humidity Pressure Visibility Wind Dir Wind Speed Gust Speed Precip Events Conditions
12:15 AM 42.8 °F 35.4 °F 26.6 °F 53% 30.15 in 10.0 mi SSE 15.0 mph - N/A   Clear
12:35 AM 42.8 °F 34.5 °F 26.6 °F 53% 30.15 in 10.0 mi South 18.4 mph 23.0 mph N/A   Clear
12:55 AM 42.8 °F 35.1 °F 26.6 °F 53% 30.15 in 10.0 mi South 16.1 mph 23.0 mph N/A   Clear
1:15 AM 42.8 °F 34.5 °F 26.6 °F 53% 30.14 in 10.0 mi South 18.4 mph 24.2 mph N/A   Clear
1:35 AM 42.8 °F 35.4 °F 26.6 °F 53% 30.14 in 10.0 mi South 15.0 mph 24.2 mph N/A   Clear
1:55 AM 42.8 °F 35.4 °F 26.6 °F 53% 30.14 in 10.0 mi South 15.0 mph 20.7 mph N/A   Clear
2:15 AM 42.8 °F 35.4 °F 26.6 °F 53% 30.14 in 10.0 mi South 15.0 mph 21.9 mph N/A   Clear
2:35 AM 42.8 °F 35.4 °F 26.6 °F 53% 30.14 in 10.0 mi South 15.0 mph 20.7 mph N/A   Clear
2:55 AM 42.8 °F 34.5 °F 26.6 °F 53% 30.14 in 10.0 mi South 18.4 mph - N/A   Clear
3:15 AM 42.8 °F 35.1 °F 26.6 °F 53% 30.13 in 10.0 mi South 16.1 mph 19.6 mph N/A   Clear
3:35 AM 41.0 °F 34.3 °F 26.6 °F 57% 30.13 in 10.0 mi South 11.5 mph 17.3 mph N/A   Clear
3:55 AM 41.0 °F 33.1 °F 26.6 °F 57% 30.12 in 10.0 mi South 15.0 mph 21.9 mph N/A   Clear
4:15 AM 41.0 °F 33.9 °F 26.6 °F 57% 30.11 in 10.0 mi South 12.7 mph 21.9 mph N/A   Clear
4:35 AM 42.8 °F 34.8 °F 26.6 °F 53% 30.11 in 10.0 mi South 17.3 mph 21.9 mph N/A   Clear
4:55 AM 41.0 °F 34.3 °F 26.6 °F 57% 30.10 in 10.0 mi South 11.5 mph 19.6 mph N/A   Clear
5:15 AM 41.0 °F 33.1 °F 26.6 °F 57% 30.10 in 10.0 mi South 15.0 mph 20.7 mph N/A   Clear
5:55 AM 41.0 °F 33.9 °F 26.6 °F 57% 30.10 in 10.0 mi South 12.7 mph - N/A   Clear
6:15 AM 41.0 °F 33.9 °F 26.6 °F 57% 30.10 in 10.0 mi South 12.7 mph - N/A   Clear
6:35 AM 41.0 °F 33.9 °F 26.6 °F 57% 30.10 in 10.0 mi South 12.7 mph 18.4 mph N/A   Clear
6:55 AM 42.8 °F 35.1 °F 26.6 °F 53% 30.10 in 10.0 mi South 16.1 mph 23.0 mph N/A   Clear
7:15 AM 42.8 °F 34.0 °F 26.6 °F 53% 30.09 in 10.0 mi South 20.7 mph 26.5 mph N/A   Clear
7:35 AM 42.8 °F 35.8 °F 26.6 °F 53% 30.09 in 10.0 mi South 13.8 mph 21.9 mph N/A   Clear
7:55 AM 41.0 °F 33.9 °F 26.6 °F 57% 30.10 in 10.0 mi South 12.7 mph - N/A   Clear
8:15 AM 41.0 °F 33.9 °F 28.4 °F 61% 30.10 in 10.0 mi South 12.7 mph 18.4 mph N/A   Clear
8:35 AM 42.8 °F 35.4 °F 28.4 °F 57% 30.10 in 10.0 mi South 15.0 mph - N/A   Clear
8:55 AM 42.8 °F 36.2 °F 28.4 °F 57% 30.11 in 10.0 mi South 12.7 mph 18.4 mph N/A   Clear
9:15 AM 44.6 °F 37.4 °F 28.4 °F 53% 30.11 in 10.0 mi South 16.1 mph - N/A   Clear
9:35 AM 46.4 °F 40.1 °F 28.4 °F 50% 30.11 in 10.0 mi South 15.0 mph 23.0 mph N/A   Clear
9:55 AM 48.2 °F - 28.4 °F 46% 30.10 in 10.0 mi South 21.9 mph 28.8 mph N/A   Clear
10:15 AM 50.0 °F - 28.4 °F 43% 30.10 in 10.0 mi South 21.9 mph 29.9 mph N/A   Clear
10:35 AM 50.0 °F - 30.2 °F 47% 30.10 in 10.0 mi South 20.7 mph 28.8 mph N/A   Clear
10:55 AM 51.8 °F - 30.2 °F 44% 30.09 in 10.0 mi South 18.4 mph 28.8 mph N/A   Clear
11:15 AM 53.6 °F - 30.2 °F 41% 30.09 in 10.0 mi South 23.0 mph 28.8 mph N/A   Clear
11:35 AM 53.6 °F - 32.0 °F 44% 30.09 in 10.0 mi South 25.3 mph 31.1 mph N/A   Clear
11:55 AM 53.6 °F - 32.0 °F 44% 30.09 in 10.0 mi SSW 20.7 mph 29.9 mph N/A   Clear
12:15 PM 55.4 °F - 32.0 °F 41% 30.08 in 10.0 mi SSW 19.6 mph 32.2 mph N/A   Clear
12:35 PM 57.2 °F - 32.0 °F 38% 30.09 in 10.0 mi South 18.4 mph 31.1 mph N/A   Clear
12:55 PM 59.0 °F - 33.8 °F 39% 30.09 in 10.0 mi SSW 19.6 mph 28.8 mph N/A   Clear
1:15 PM 59.0 °F - 33.8 °F 39% 30.07 in 10.0 mi SSW 19.6 mph 27.6 mph N/A   Clear
1:35 PM 60.8 °F - 33.8 °F 36% 30.07 in 10.0 mi SSW 17.3 mph 27.6 mph N/A   Clear
1:55 PM 62.6 °F - 35.6 °F 37% 30.06 in 10.0 mi SSW 12.7 mph 23.0 mph N/A   Clear
2:15 PM 64.4 °F - 35.6 °F 34% 30.05 in 10.0 mi South 17.3 mph 26.5 mph N/A   Clear
2:35 PM 64.4 °F - 35.6 °F 34% 30.06 in 10.0 mi SSW 16.1 mph 27.6 mph N/A   Clear
2:55 PM 64.4 °F - 35.6 °F 34% 30.04 in 10.0 mi SW 18.4 mph 24.2 mph N/A   Clear
3:15 PM 66.2 °F - 35.6 °F 32% 30.04 in 10.0 mi SSW 16.1 mph 24.2 mph N/A   Clear
3:35 PM 68.0 °F - 37.4 °F 33% 30.03 in 10.0 mi SSW 12.7 mph 26.5 mph N/A   Clear
3:55 PM 68.0 °F - 37.4 °F 33% 30.02 in 10.0 mi SSW 10.4 mph 21.9 mph N/A   Clear
4:15 PM 69.8 °F - 37.4 °F 31% 30.01 in 10.0 mi WSW 18.4 mph 28.8 mph N/A   Clear
4:35 PM 69.8 °F - 37.4 °F 31% 30.01 in 10.0 mi SSW 12.7 mph 24.2 mph N/A   Clear
4:55 PM 69.8 °F - 37.4 °F 31% 30.01 in 10.0 mi SW 16.1 mph 23.0 mph N/A   Clear
5:15 PM 69.8 °F - 37.4 °F 31% 30.01 in 10.0 mi SSW 17.3 mph 23.0 mph N/A   Clear
5:35 PM 69.8 °F - 37.4 °F 31% 30.01 in 10.0 mi SW 13.8 mph 19.6 mph N/A   Clear
5:55 PM 69.8 °F - 37.4 °F 31% 30.00 in 10.0 mi South 12.7 mph 18.4 mph N/A   Clear
6:15 PM 69.8 °F - 37.4 °F 31% 30.00 in 10.0 mi SSW 9.2 mph - N/A   Clear
6:35 PM 69.8 °F - 39.2 °F 33% 30.00 in 10.0 mi SW 8.1 mph - N/A   Clear
6:55 PM 69.8 °F - 37.4 °F 31% 30.00 in 10.0 mi SSW 8.1 mph - N/A   Clear
7:15 PM 68.0 °F - 39.2 °F 35% 30.01 in 10.0 mi SSW 4.6 mph - N/A   Clear
7:35 PM 66.2 °F - 39.2 °F 37% 30.01 in 10.0 mi South 3.5 mph - N/A   Clear
7:55 PM 62.6 °F - 37.4 °F 39% 30.02 in 10.0 mi SSE 4.6 mph - N/A   Clear
8:15 PM 60.8 °F - 39.2 °F 45% 30.02 in 10.0 mi SE 4.6 mph - N/A   Clear
8:35 PM 59.0 °F - 41.0 °F 51% 30.03 in 10.0 mi SSE 5.8 mph - N/A   Clear
8:55 PM 55.4 °F - 41.0 °F 58% 30.04 in 10.0 mi ESE 3.5 mph - N/A   Clear
9:15 PM 55.4 °F - 41.0 °F 58% 30.04 in 10.0 mi Calm Calm - N/A   Clear
9:35 PM 55.4 °F - 41.0 °F 58% 30.04 in 10.0 mi SE 5.8 mph - N/A   Clear
9:55 PM 51.8 °F - 39.2 °F 62% 30.06 in 10.0 mi ESE 5.8 mph - N/A   Clear
10:15 PM 51.8 °F - 41.0 °F 67% 30.06 in 10.0 mi SE 4.6 mph - N/A   Clear
10:35 PM 51.8 °F - 41.0 °F 67% 30.07 in 10.0 mi SSE 5.8 mph - N/A   Clear
10:55 PM 51.8 °F - 41.0 °F 67% 30.07 in 10.0 mi Calm Calm - N/A   Clear
11:15 PM 50.0 °F - 39.2 °F 66% 30.07 in 10.0 mi Calm Calm - N/A   Clear
11:35 PM 51.8 °F - 41.0 °F 67% 30.08 in 10.0 mi SE 5.8 mph - N/A   Clear
11:55 PM 51.8 °F - 41.0 °F 67% 30.08 in 10.0 mi SE 5.8 mph - N/A   Clear